createdAt,value
2019-02-16T00:02:37.554Z,11.27
2019-02-16T00:05:42.409Z,12.50
2019-02-16T00:08:47.299Z,10.30
2019-02-16T00:11:52.138Z,11.10
2019-02-16T00:14:56.978Z,10.90
2019-02-16T00:18:01.799Z,11.10
2019-02-16T00:21:06.774Z,11.23
2019-02-16T00:24:11.619Z,12.93
2019-02-16T00:27:16.498Z,12.47
2019-02-16T00:30:21.319Z,11.93
2019-02-16T00:33:26.182Z,11.00
2019-02-16T00:36:31.080Z,10.97
2019-02-16T00:39:35.907Z,11.17
2019-02-16T00:42:40.759Z,13.67
2019-02-16T00:45:45.599Z,12.53
2019-02-16T00:48:50.448Z,13.70
2019-02-16T00:51:55.342Z,14.10
2019-02-16T00:55:00.267Z,14.43
2019-02-16T00:58:05.173Z,13.90
2019-02-16T01:01:10.000Z,14.13
2019-02-16T01:04:14.824Z,15.73
2019-02-16T01:07:19.637Z,13.20
2019-02-16T01:10:24.470Z,15.20
2019-02-16T01:13:29.277Z,11.90
2019-02-16T01:16:34.105Z,12.45
2019-02-16T01:19:38.957Z,13.93
2019-02-16T01:22:43.767Z,13.90
2019-02-16T01:25:48.624Z,13.87
2019-02-16T01:28:53.430Z,13.47
2019-02-16T01:31:59.226Z,14.13
2019-02-16T01:35:05.274Z,14.07
2019-02-16T01:38:10.123Z,15.43
2019-02-16T01:41:14.957Z,15.57
2019-02-16T01:44:19.806Z,15.83
2019-02-16T01:47:24.659Z,16.03
2019-02-16T01:50:29.494Z,13.80
2019-02-16T01:53:34.318Z,14.17
2019-02-16T01:56:39.165Z,16.40
2019-02-16T01:59:44.221Z,15.73
2019-02-16T02:02:49.041Z,14.90
2019-02-16T02:05:53.870Z,15.97
2019-02-16T02:08:58.752Z,15.93
2019-02-16T02:12:04.073Z,19.40
2019-02-16T02:15:09.814Z,17.40
2019-02-16T02:18:14.664Z,18.40
2019-02-16T02:21:19.475Z,18.00
2019-02-16T02:24:24.347Z,17.33
2019-02-16T02:27:29.191Z,18.33
2019-02-16T02:30:34.019Z,19.32
2019-02-16T02:33:38.845Z,19.93
2019-02-16T02:36:43.666Z,18.57
2019-02-16T02:39:48.518Z,19.83
2019-02-16T02:42:53.360Z,20.80
2019-02-16T02:45:58.291Z,20.47
2019-02-16T02:49:03.156Z,23.87
2019-02-16T02:52:08.009Z,21.73
2019-02-16T02:55:12.819Z,20.60
2019-02-16T02:58:17.654Z,18.97
2019-02-16T03:01:22.491Z,17.37
2019-02-16T03:04:27.314Z,19.77
2019-02-16T03:07:32.134Z,17.03
2019-02-16T03:10:36.980Z,16.07
2019-02-16T03:13:41.804Z,16.17
2019-02-16T03:16:46.619Z,18.73
2019-02-16T03:19:51.473Z,18.00
2019-02-16T03:23:11.757Z,18.90
2019-02-16T03:26:39.108Z,15.07
2019-02-16T03:29:58.194Z,15.37
2019-02-16T03:33:08.559Z,17.60
2019-02-16T03:36:51.067Z,17.40
2019-02-16T03:39:55.941Z,16.00
2019-02-16T03:43:00.808Z,15.33
2019-02-16T03:46:05.894Z,16.23
2019-02-16T03:49:10.795Z,15.53
2019-02-16T03:52:15.607Z,16.82
2019-02-16T03:55:20.455Z,16.07
2019-02-16T03:58:25.366Z,14.93
2019-02-16T04:01:30.183Z,15.67
2019-02-16T04:04:35.238Z,15.70
2019-02-16T04:07:40.100Z,15.53
2019-02-16T04:10:44.940Z,14.10
2019-02-16T04:13:49.828Z,14.73
2019-02-16T04:16:54.774Z,13.80
2019-02-16T04:19:59.647Z,14.20
2019-02-16T04:23:04.545Z,15.50
2019-02-16T04:26:09.579Z,14.53
2019-02-16T04:29:14.491Z,15.73
2019-02-16T04:32:19.318Z,16.23
2019-02-16T04:35:24.214Z,16.77
2019-02-16T04:38:29.027Z,14.78
2019-02-16T04:41:33.887Z,15.43
2019-02-16T04:44:38.705Z,16.07
2019-02-16T04:47:43.521Z,16.93
2019-02-16T04:50:48.378Z,16.50
2019-02-16T04:53:53.215Z,15.47
2019-02-16T04:56:58.218Z,13.70
2019-02-16T05:00:03.142Z,13.38
2019-02-16T05:03:07.986Z,14.50
2019-02-16T05:06:13.915Z,13.27
2019-02-16T05:09:18.747Z,13.70
2019-02-16T05:12:23.575Z,12.87
2019-02-16T05:15:28.416Z,13.20
2019-02-16T05:18:33.273Z,13.60
2019-02-16T05:21:38.215Z,13.70
2019-02-16T05:24:43.060Z,12.27
2019-02-16T05:27:47.975Z,13.10
2019-02-16T05:30:52.786Z,12.87
2019-02-16T05:33:57.642Z,11.67
2019-02-16T05:37:02.449Z,12.73
2019-02-16T05:40:09.126Z,12.43
2019-02-16T05:43:14.132Z,12.43
2019-02-16T05:46:19.060Z,12.00
2019-02-16T05:49:23.914Z,12.47
2019-02-16T05:52:28.752Z,12.50
2019-02-16T05:55:33.603Z,11.73
2019-02-16T05:58:38.664Z,12.13
2019-02-16T06:01:53.247Z,12.23
2019-02-16T06:04:50.101Z,11.50
2019-02-16T06:07:54.954Z,11.60
2019-02-16T06:11:00.692Z,10.93
2019-02-16T06:14:06.870Z,11.40
2019-02-16T06:17:12.662Z,10.73
2019-02-16T06:20:17.553Z,12.93
2019-02-16T06:23:22.383Z,11.87
2019-02-16T06:26:27.196Z,12.50
2019-02-16T06:29:32.030Z,12.80
2019-02-16T06:32:36.870Z,13.00
2019-02-16T06:35:43.360Z,12.47
2019-02-16T06:38:48.166Z,12.23
2019-02-16T06:41:53.046Z,12.73
2019-02-16T06:44:58.027Z,12.13
2019-02-16T06:48:02.847Z,13.73
2019-02-16T06:51:07.693Z,14.00
2019-02-16T06:54:12.506Z,14.93
2019-02-16T06:57:28.193Z,15.73
2019-02-16T07:00:33.077Z,14.77
2019-02-16T07:03:37.937Z,16.30
2019-02-16T07:06:42.861Z,17.53
2019-02-16T07:09:47.827Z,14.00
2019-02-16T07:12:52.723Z,13.07
2019-02-16T07:16:15.814Z,14.17
2019-02-16T07:19:24.698Z,16.53
2019-02-16T07:22:29.531Z,17.83
2019-02-16T07:25:34.361Z,22.37
2019-02-16T07:28:39.241Z,20.50
2019-02-16T07:31:44.091Z,19.63
2019-02-16T07:34:48.910Z,17.00
2019-02-16T07:37:54.111Z,16.20
2019-02-16T07:40:59.159Z,16.97
2019-02-16T07:44:05.651Z,15.20
2019-02-16T07:47:27.163Z,13.77
2019-02-16T07:50:45.595Z,14.60
2019-02-16T07:53:54.870Z,12.67
2019-02-16T07:57:04.291Z,12.50
2019-02-16T08:00:20.593Z,10.60
2019-02-16T08:03:30.137Z,10.37
2019-02-16T08:06:45.506Z,10.27
2019-02-16T08:10:10.070Z,10.68
2019-02-16T08:13:22.886Z,9.90
2019-02-16T08:16:41.310Z,9.23
2019-02-16T08:19:53.703Z,9.27
2019-02-16T08:23:06.145Z,9.83
2019-02-16T08:26:15.587Z,8.37
2019-02-16T08:29:25.046Z,9.23
2019-02-16T08:32:34.388Z,9.60
2019-02-16T08:35:46.624Z,9.83
2019-02-16T08:38:59.311Z,9.20
2019-02-16T08:42:05.799Z,9.60
2019-02-16T08:45:28.326Z,8.57
2019-02-16T08:48:35.427Z,8.20
2019-02-16T08:51:42.456Z,8.40
2019-02-16T08:55:04.121Z,8.55
2019-02-16T08:58:16.302Z,8.17
2019-02-16T09:01:27.432Z,7.97
2019-02-16T09:04:33.618Z,7.97
2019-02-16T09:07:40.062Z,8.10
2019-02-16T09:10:46.566Z,7.63
2019-02-16T09:13:58.725Z,7.97
2019-02-16T09:17:05.199Z,8.60
2019-02-16T09:20:23.907Z,7.58
2019-02-16T09:23:45.682Z,7.53
2019-02-16T09:26:52.158Z,7.30
2019-02-16T09:29:58.634Z,7.17
2019-02-16T09:33:05.138Z,6.77
2019-02-16T09:36:14.586Z,7.00
2019-02-16T09:39:26.538Z,6.90
2019-02-16T09:42:35.854Z,6.60
2019-02-16T09:45:47.982Z,6.70
2019-02-16T09:49:09.067Z,6.43
2019-02-16T09:52:21.363Z,6.63
2019-02-16T09:55:36.834Z,6.73
2019-02-16T09:58:46.245Z,5.73
2019-02-16T10:01:52.697Z,6.50
2019-02-16T10:05:04.883Z,6.17
2019-02-16T10:08:20.373Z,4.63
2019-02-16T10:11:29.725Z,5.70
2019-02-16T10:14:36.173Z,4.97
2019-02-16T10:17:57.722Z,4.80
2019-02-16T10:21:04.510Z,5.00
2019-02-16T10:24:18.230Z,5.37
2019-02-16T10:27:30.747Z,5.30
2019-02-16T10:30:53.598Z,5.53
2019-02-16T10:34:05.589Z,5.20
2019-02-16T10:37:18.117Z,5.33
2019-02-16T10:40:30.270Z,5.40
2019-02-16T10:43:39.859Z,5.47
2019-02-16T10:46:49.301Z,5.00
2019-02-16T10:49:58.203Z,5.20
2019-02-16T10:53:10.691Z,5.00
2019-02-16T10:56:17.188Z,4.97
2019-02-16T10:59:38.605Z,5.33
2019-02-16T11:02:45.057Z,4.77
2019-02-16T11:05:56.982Z,5.20
2019-02-16T11:09:06.375Z,4.93
2019-02-16T11:12:19.087Z,5.27
2019-02-16T11:15:37.396Z,4.70
2019-02-16T11:18:43.857Z,4.97
2019-02-16T11:22:04.378Z,4.83
2019-02-16T11:25:11.718Z,4.60
2019-02-16T11:28:19.634Z,4.40
2019-02-16T11:31:43.966Z,4.70
2019-02-16T11:34:59.301Z,4.73
2019-02-16T11:38:08.755Z,4.27
2019-02-16T11:41:18.946Z,4.90
2019-02-16T11:44:26.043Z,4.70
2019-02-16T11:47:38.426Z,3.97
2019-02-16T11:50:47.793Z,4.87
2019-02-16T11:54:08.929Z,4.60
2019-02-16T11:57:30.369Z,4.30
2019-02-16T12:00:54.666Z,4.70
2019-02-16T12:04:17.296Z,5.00
2019-02-16T12:07:32.766Z,4.63
2019-02-16T12:10:39.305Z,4.37
2019-02-16T12:13:51.761Z,4.23
2019-02-16T12:17:01.154Z,3.83
2019-02-16T12:20:10.268Z,4.43
2019-02-16T12:23:25.591Z,4.33
2019-02-16T12:26:44.046Z,4.17
2019-02-16T12:29:53.499Z,4.10
2019-02-16T12:33:16.386Z,3.53
2019-02-16T12:36:25.865Z,4.73
2019-02-16T12:39:35.254Z,3.83
2019-02-16T12:42:41.714Z,3.80
2019-02-16T12:46:00.295Z,3.80
2019-02-16T12:49:10.144Z,3.40
2019-02-16T12:52:25.795Z,3.60
2019-02-16T12:55:32.255Z,3.50
2019-02-16T12:58:47.590Z,3.40
2019-02-16T13:01:54.049Z,3.40
2019-02-16T13:05:00.530Z,3.50
2019-02-16T13:08:07.013Z,3.50
2019-02-16T13:11:25.689Z,3.57
2019-02-16T13:14:35.125Z,3.60
2019-02-16T13:17:47.198Z,3.57
2019-02-16T13:20:59.609Z,3.07
2019-02-16T13:24:17.757Z,2.90
2019-02-16T13:27:24.209Z,3.13
2019-02-16T13:30:30.694Z,3.07
2019-02-16T13:33:49.053Z,2.90
2019-02-16T13:36:58.437Z,2.80
2019-02-16T13:40:21.451Z,3.33
2019-02-16T13:43:27.937Z,3.07
2019-02-16T13:46:40.143Z,2.80
2019-02-16T13:49:55.890Z,2.57
2019-02-16T13:53:18.974Z,2.90
2019-02-16T13:56:25.425Z,2.93
2019-02-16T13:59:34.822Z,2.90
2019-02-16T14:02:41.307Z,2.93
2019-02-16T14:05:54.282Z,2.83
2019-02-16T14:09:00.738Z,2.80
2019-02-16T14:12:07.509Z,3.12
2019-02-16T14:15:13.962Z,4.97
2019-02-16T14:18:18.765Z,3.20
2019-02-16T14:21:23.613Z,3.20
2019-02-16T14:24:38.847Z,2.87
2019-02-16T14:27:43.650Z,2.93
2019-02-16T14:30:48.494Z,2.83
2019-02-16T14:33:53.409Z,3.10
2019-02-16T14:36:58.594Z,2.53
2019-02-16T14:40:04.114Z,3.43
2019-02-16T14:43:08.956Z,3.03
2019-02-16T14:46:13.773Z,3.40
2019-02-16T14:49:18.588Z,4.17
2019-02-16T14:52:23.448Z,3.70
2019-02-16T14:55:28.318Z,3.97
2019-02-16T14:58:33.140Z,3.67
2019-02-16T15:01:38.021Z,4.00
2019-02-16T15:04:42.868Z,4.60
2019-02-16T15:07:47.743Z,4.07
2019-02-16T15:10:52.574Z,4.40
2019-02-16T15:13:57.395Z,4.73
2019-02-16T15:17:02.213Z,4.40
2019-02-16T15:20:13.099Z,5.00
2019-02-16T15:23:18.163Z,4.20
2019-02-16T15:26:28.524Z,5.00
2019-02-16T15:29:29.533Z,5.07
2019-02-16T15:32:34.382Z,5.00
2019-02-16T15:35:39.323Z,5.00
2019-02-16T15:38:44.212Z,5.23
2019-02-16T15:41:49.754Z,5.37
2019-02-16T15:44:54.566Z,4.93
2019-02-16T15:47:59.390Z,5.00
2019-02-16T15:51:04.262Z,4.90
2019-02-16T15:54:09.114Z,5.43
2019-02-16T15:57:14.012Z,5.50
2019-02-16T16:00:23.213Z,5.80
2019-02-16T16:03:28.074Z,6.17
2019-02-16T16:06:32.960Z,5.63
2019-02-16T16:09:45.642Z,6.17
2019-02-16T16:13:00.831Z,5.40
2019-02-16T16:16:07.281Z,5.33
2019-02-16T16:19:19.953Z,4.97
2019-02-16T16:22:35.309Z,5.40
2019-02-16T16:25:41.773Z,4.20
2019-02-16T16:29:00.685Z,4.80
2019-02-16T16:32:10.939Z,4.60
2019-02-16T16:35:17.399Z,4.87
2019-02-16T16:38:26.550Z,5.43
2019-02-16T16:41:32.996Z,5.47
2019-02-16T16:44:39.453Z,5.37
2019-02-16T16:47:55.709Z,5.23
2019-02-16T16:51:05.406Z,4.97
2019-02-16T16:54:21.003Z,5.93
2019-02-16T16:57:27.470Z,6.20
2019-02-16T17:00:33.923Z,7.10
2019-02-16T17:03:40.405Z,6.33
2019-02-16T17:06:52.263Z,5.83
2019-02-16T17:10:07.557Z,5.10
2019-02-16T17:13:16.906Z,5.67
2019-02-16T17:16:23.362Z,4.97
2019-02-16T17:19:38.603Z,5.00
2019-02-16T17:22:45.097Z,5.57
2019-02-16T17:26:00.317Z,6.20
2019-02-16T17:29:09.732Z,5.67
2019-02-16T17:32:30.996Z,5.07
2019-02-16T17:35:40.382Z,5.60
2019-02-16T17:38:55.505Z,5.27
2019-02-16T17:42:01.988Z,6.10
2019-02-16T17:45:22.890Z,5.67
2019-02-16T17:48:45.298Z,5.53
2019-02-16T17:51:54.410Z,6.00
2019-02-16T17:55:00.882Z,5.77
2019-02-16T17:58:11.277Z,6.67
2019-02-16T18:01:17.883Z,6.30
2019-02-16T18:04:39.227Z,6.40
2019-02-16T18:07:54.499Z,6.80
2019-02-16T18:11:17.379Z,6.60
2019-02-16T18:14:29.782Z,6.13
2019-02-16T18:17:45.179Z,6.63
2019-02-16T18:20:54.406Z,6.83
2019-02-16T18:24:06.914Z,7.20
2019-02-16T18:27:13.419Z,7.10
2019-02-16T18:30:19.879Z,6.93
2019-02-16T18:33:40.296Z,6.30
2019-02-16T18:36:52.591Z,6.30
2019-02-16T18:39:59.123Z,7.13
2019-02-16T18:43:14.648Z,6.77
2019-02-16T18:46:30.290Z,6.83
2019-02-16T18:49:39.691Z,6.90
2019-02-16T18:52:46.150Z,6.40
2019-02-16T18:56:01.573Z,6.63
2019-02-16T18:59:08.091Z,7.30
2019-02-16T19:02:14.598Z,8.10
2019-02-16T19:05:22.021Z,8.93
2019-02-16T19:08:34.517Z,7.97
2019-02-16T19:11:41.001Z,8.37
2019-02-16T19:15:05.521Z,8.37
2019-02-16T19:18:12.075Z,8.50
2019-02-16T19:21:27.514Z,7.90
2019-02-16T19:24:39.589Z,7.83
2019-02-16T19:27:48.754Z,8.90
2019-02-16T19:31:01.194Z,9.30
2019-02-16T19:34:25.745Z,8.37
2019-02-16T19:37:35.030Z,8.70
2019-02-16T19:40:41.579Z,8.83
2019-02-16T19:43:48.119Z,9.67
2019-02-16T19:46:57.676Z,10.20
2019-02-16T19:50:10.358Z,9.60
2019-02-16T19:53:16.839Z,9.60
2019-02-16T19:56:29.391Z,8.97
2019-02-16T19:59:36.056Z,9.87
2019-02-16T20:02:42.657Z,8.60
2019-02-16T20:06:04.206Z,9.00
2019-02-16T20:09:13.737Z,9.08
2019-02-16T20:12:20.358Z,8.17
2019-02-16T20:15:27.058Z,8.50
2019-02-16T20:18:49.526Z,8.53
2019-02-16T20:21:56.052Z,7.50
2019-02-16T20:25:02.529Z,8.87
2019-02-16T20:28:18.343Z,8.17
2019-02-16T20:31:24.781Z,7.30
2019-02-16T20:34:31.792Z,7.63
2019-02-16T20:37:44.080Z,7.33
2019-02-16T20:40:53.655Z,7.43
2019-02-16T20:44:15.352Z,7.20
2019-02-16T20:47:38.223Z,6.73
2019-02-16T20:50:47.398Z,7.17
2019-02-16T20:53:56.522Z,7.40
2019-02-16T20:57:03.166Z,7.83
2019-02-16T21:00:17.497Z,7.70
2019-02-16T21:03:40.121Z,7.67
2019-02-16T21:06:49.531Z,7.40
2019-02-16T21:09:56.031Z,7.47
2019-02-16T21:13:02.565Z,6.90
2019-02-16T21:16:09.198Z,7.57
2019-02-16T21:19:32.626Z,7.13
2019-02-16T21:22:45.157Z,7.30
2019-02-16T21:26:08.186Z,7.80
2019-02-16T21:29:15.077Z,6.90
2019-02-16T21:32:24.519Z,7.50
2019-02-16T21:35:31.139Z,7.47
2019-02-16T21:38:46.369Z,7.70
2019-02-16T21:41:55.895Z,7.83
2019-02-16T21:45:02.375Z,8.10
2019-02-16T21:48:10.399Z,7.93
2019-02-16T21:51:20.031Z,8.33
2019-02-16T21:54:44.358Z,8.23
2019-02-16T21:58:07.778Z,8.77
2019-02-16T22:01:13.802Z,9.80
2019-02-16T22:04:23.038Z,9.63
2019-02-16T22:07:38.849Z,9.27
2019-02-16T22:11:04.227Z,9.37
2019-02-16T22:14:09.034Z,9.57
2019-02-16T22:17:13.978Z,10.50
2019-02-16T22:20:18.879Z,9.43
2019-02-16T22:23:23.732Z,10.13
2019-02-16T22:26:28.953Z,10.87
2019-02-16T22:29:33.799Z,11.97
2019-02-16T22:32:38.656Z,13.57
2019-02-16T22:35:43.763Z,12.87
2019-02-16T22:38:48.658Z,13.27
2019-02-16T22:41:54.627Z,12.03
2019-02-16T22:44:59.515Z,12.27
2019-02-16T22:48:04.378Z,13.10
2019-02-16T22:51:09.438Z,13.40
2019-02-16T22:54:14.798Z,14.47
2019-02-16T22:57:19.610Z,15.60
2019-02-16T23:00:38.166Z,17.27
2019-02-16T23:03:44.896Z,18.13
2019-02-16T23:06:49.873Z,17.67
2019-02-16T23:09:54.970Z,16.63
2019-02-16T23:12:59.788Z,15.48
2019-02-16T23:16:04.647Z,18.83
2019-02-16T23:19:09.757Z,17.63
2019-02-16T23:22:14.610Z,20.13
2019-02-16T23:25:19.438Z,17.57
2019-02-16T23:28:24.267Z,17.57
2019-02-16T23:31:29.294Z,18.67
2019-02-16T23:34:34.314Z,18.83
2019-02-16T23:37:39.201Z,18.80
2019-02-16T23:40:44.045Z,17.73
2019-02-16T23:43:48.922Z,20.00
2019-02-16T23:46:53.766Z,17.07
2019-02-16T23:49:58.594Z,15.73
2019-02-16T23:53:03.428Z,15.10
2019-02-16T23:56:08.257Z,14.93
2019-02-16T23:59:13.914Z,14.10
